createdAt,value
2022-12-05T00:02:27.324Z,100527.41
2022-12-05T00:04:55.718Z,100532.00
2022-12-05T00:07:24.151Z,100532.63
2022-12-05T00:09:52.638Z,100529.19
2022-12-05T00:12:21.287Z,100524.69
2022-12-05T00:14:51.833Z,100528.25
2022-12-05T00:17:20.575Z,100515.06
2022-12-05T00:19:53.721Z,100503.59
2022-12-05T00:22:25.458Z,100523.22
2022-12-05T00:24:54.049Z,100504.53
2022-12-05T00:27:22.706Z,100517.03
2022-12-05T00:29:52.581Z,100525.63
2022-12-05T00:32:20.992Z,100502.00
2022-12-05T00:34:49.392Z,100511.63
2022-12-05T00:37:17.824Z,100514.22
2022-12-05T00:39:46.306Z,100512.34
2022-12-05T00:42:14.812Z,100508.06
2022-12-05T00:44:43.240Z,100509.75
2022-12-05T00:47:13.566Z,100485.34
2022-12-05T00:49:42.109Z,100512.56
2022-12-05T00:52:10.576Z,100523.22
2022-12-05T00:54:43.386Z,100521.53
2022-12-05T00:57:11.836Z,100502.94
2022-12-05T00:59:41.654Z,100509.19
2022-12-05T01:02:10.145Z,100528.34
2022-12-05T01:04:40.213Z,100524.78
2022-12-05T01:07:08.671Z,100537.03
2022-12-05T01:09:37.017Z,100531.81
2022-12-05T01:12:05.949Z,100523.97
2022-12-05T01:14:35.126Z,100531.81
2022-12-05T01:17:03.588Z,100531.81
2022-12-05T01:19:34.019Z,100532.63
2022-12-05T01:22:03.822Z,100527.13
2022-12-05T01:24:32.507Z,100522.84
2022-12-05T01:27:00.845Z,100500.22
2022-12-05T01:29:29.553Z,100513.38
2022-12-05T01:31:58.349Z,100503.75
2022-12-05T01:34:27.807Z,100513.56
2022-12-05T01:36:56.258Z,100516.75
2022-12-05T01:39:26.047Z,100501.88
2022-12-05T01:41:54.495Z,100505.44
2022-12-05T01:45:01.751Z,100506.19
2022-12-05T01:47:32.241Z,100496.66
2022-12-05T01:50:02.168Z,100508.06
2022-12-05T01:52:32.753Z,100507.00
2022-12-05T01:55:08.434Z,100508.88
2022-12-05T01:57:36.883Z,100513.19
2022-12-05T02:00:11.032Z,100507.31
2022-12-05T02:02:40.740Z,100496.94
2022-12-05T02:05:13.317Z,100509.94
2022-12-05T02:07:44.036Z,100504.03
2022-12-05T02:10:14.212Z,100503.03
2022-12-05T02:12:45.113Z,100508.25
2022-12-05T02:15:30.450Z,100480.25
2022-12-05T02:18:11.176Z,100456.13
2022-12-05T02:20:50.067Z,100486.75
2022-12-05T02:23:51.391Z,100473.13
2022-12-05T02:26:43.393Z,100477.44
2022-12-05T02:30:05.943Z,100486.03
2022-12-05T02:32:48.030Z,100478.25
2022-12-05T02:35:29.496Z,100468.91
2022-12-05T02:38:10.137Z,100482.75
2022-12-05T02:40:52.096Z,100486.28
2022-12-05T02:43:25.659Z,100478.38
2022-12-05T02:46:00.254Z,100481.19
2022-12-05T02:48:30.314Z,100482.00
2022-12-05T02:51:01.937Z,100482.00
2022-12-05T02:53:33.149Z,100476.31
2022-12-05T02:56:02.756Z,100482.31
2022-12-05T02:58:35.373Z,100478.00
2022-12-05T03:01:05.863Z,100478.84
2022-12-05T03:03:36.050Z,100476.69
2022-12-05T03:06:09.656Z,100465.19
2022-12-05T03:08:41.723Z,100475.38
2022-12-05T03:11:11.277Z,100479.88
2022-12-05T03:13:46.245Z,100485.13
2022-12-05T03:16:29.672Z,100475.66
2022-12-05T03:19:03.038Z,100455.94
2022-12-05T03:21:36.361Z,100460.81
2022-12-05T03:24:08.338Z,100463.72
2022-12-05T03:26:44.625Z,100471.56
2022-12-05T03:29:26.125Z,100470.69
2022-12-05T03:32:05.391Z,100461.47
2022-12-05T03:34:43.996Z,100463.78
2022-12-05T03:37:16.684Z,100468.09
2022-12-05T03:39:51.335Z,100469.22
2022-12-05T03:42:25.570Z,100463.78
2022-12-05T03:44:58.955Z,100465.47
2022-12-05T03:47:38.509Z,100468.75
2022-12-05T03:50:13.043Z,100465.47
2022-12-05T03:53:17.867Z,100465.38
2022-12-05T03:55:40.048Z,100451.66
2022-12-05T03:58:12.293Z,100453.25
2022-12-05T04:00:45.258Z,100455.94
2022-12-05T04:03:19.756Z,100456.69
2022-12-05T04:05:51.406Z,100447.25
2022-12-05T04:08:24.005Z,100427.00
2022-12-05T04:10:55.169Z,100442.13
2022-12-05T04:13:28.723Z,100445.78
2022-12-05T04:16:20.724Z,100437.81
2022-12-05T04:18:55.928Z,100442.03
2022-12-05T04:21:41.137Z,100444.72
2022-12-05T04:24:31.417Z,100456.13
2022-12-05T04:27:12.149Z,100455.19
2022-12-05T04:29:47.207Z,100449.13
2022-12-05T04:32:16.023Z,100444.00
2022-12-05T04:34:52.397Z,100437.94
2022-12-05T04:37:26.512Z,100438.88
2022-12-05T04:40:00.462Z,100438.19
2022-12-05T04:42:32.642Z,100443.44
2022-12-05T04:45:05.168Z,100444.28
2022-12-05T04:47:38.661Z,100449.34
2022-12-05T04:50:12.120Z,100449.59
2022-12-05T04:52:42.114Z,100453.72
2022-12-05T04:55:14.026Z,100455.78
2022-12-05T04:57:51.113Z,100451.28
2022-12-05T05:00:20.259Z,100452.97
2022-12-05T05:02:57.486Z,100452.41
2022-12-05T05:05:29.334Z,100454.84
2022-12-05T05:07:57.887Z,100437.94
2022-12-05T05:10:32.665Z,100453.16
2022-12-05T05:13:01.063Z,100454.84
2022-12-05T05:15:29.473Z,100455.22
2022-12-05T05:17:57.788Z,100451.41
2022-12-05T05:20:28.644Z,100448.66
2022-12-05T05:22:58.914Z,100460.44
2022-12-05T05:25:27.684Z,100461.91
2022-12-05T05:27:57.804Z,100460.97
2022-12-05T05:30:26.884Z,100470.53
2022-12-05T05:33:01.960Z,100467.81
2022-12-05T05:35:38.889Z,100477.44
2022-12-05T05:38:07.477Z,100476.41
2022-12-05T05:40:37.825Z,100480.81
2022-12-05T05:43:06.564Z,100485.84
2022-12-05T05:45:36.982Z,100465.31
2022-12-05T05:48:05.925Z,100477.44
2022-12-05T05:50:35.748Z,100483.13
2022-12-05T05:53:04.374Z,100483.06
2022-12-05T05:55:34.501Z,100475.19
2022-12-05T05:58:03.164Z,100478.56
2022-12-05T06:00:31.499Z,100472.03
2022-12-05T06:03:00.108Z,100492.78
2022-12-05T06:05:28.660Z,100496.13
2022-12-05T06:07:58.463Z,100497.69
2022-12-05T06:10:27.194Z,100484.53
2022-12-05T06:12:55.965Z,100487.78
2022-12-05T06:15:24.597Z,100478.38
2022-12-05T06:17:53.079Z,100472.47
2022-12-05T06:20:21.463Z,100467.63
2022-12-05T06:22:49.870Z,100463.03
2022-12-05T06:25:19.720Z,100496.31
2022-12-05T06:27:48.212Z,100498.63
2022-12-05T06:30:17.113Z,100471.09
2022-12-05T06:32:45.871Z,100471.38
2022-12-05T06:35:16.597Z,100482.94
2022-12-05T06:37:45.400Z,100486.84
2022-12-05T06:40:14.436Z,100485.28
2022-12-05T06:42:44.237Z,100478.44
2022-12-05T06:45:13.508Z,100466.41
2022-12-05T06:47:41.899Z,100475.44
2022-12-05T06:50:11.113Z,100484.34
2022-12-05T06:52:39.522Z,100486.75
2022-12-05T06:55:08.686Z,100481.34
2022-12-05T06:57:37.191Z,100479.66
2022-12-05T07:00:25.932Z,100475.16
2022-12-05T07:02:54.489Z,100467.50
2022-12-05T07:05:23.080Z,100459.66
2022-12-05T07:07:51.645Z,100470.22
2022-12-05T07:10:20.659Z,100459.09
2022-12-05T07:12:49.056Z,100468.44
2022-12-05T07:15:19.163Z,100470.94
2022-12-05T07:17:47.604Z,100459.47
2022-12-05T07:20:18.116Z,100467.13
2022-12-05T07:22:47.138Z,100461.03
2022-12-05T07:25:15.670Z,100467.94
2022-12-05T07:27:44.005Z,100455.91
2022-12-05T07:30:13.103Z,100471.22
2022-12-05T07:32:42.902Z,100462.16
2022-12-05T07:35:11.273Z,100475.72
2022-12-05T07:37:39.629Z,100481.56
2022-12-05T07:40:10.845Z,100480.56
2022-12-05T07:42:39.654Z,100481.50
2022-12-05T07:45:09.490Z,100489.16
2022-12-05T07:47:37.963Z,100488.97
2022-12-05T07:50:09.288Z,100500.38
2022-12-05T07:52:37.704Z,100494.94
2022-12-05T07:55:07.119Z,100495.03
2022-12-05T07:57:35.813Z,100499.22
2022-12-05T08:00:04.848Z,100498.56
2022-12-05T08:02:36.532Z,100498.38
2022-12-05T08:05:09.556Z,100496.69
2022-12-05T08:07:37.991Z,100475.53
2022-12-05T08:10:07.771Z,100495.28
2022-12-05T08:12:36.346Z,100499.28
2022-12-05T08:15:04.849Z,100495.16
2022-12-05T08:17:33.788Z,100505.03
2022-12-05T08:20:02.823Z,100509.13
2022-12-05T08:22:32.745Z,100503.03
2022-12-05T08:25:01.201Z,100506.31
2022-12-05T08:27:29.940Z,100514.16
2022-12-05T08:29:58.899Z,100488.97
2022-12-05T08:32:27.656Z,100499.03
2022-12-05T08:34:56.138Z,100522.75
2022-12-05T08:37:24.628Z,100515.84
2022-12-05T08:39:54.721Z,100514.97
2022-12-05T08:42:23.412Z,100524.53
2022-12-05T08:44:52.613Z,100520.88
2022-12-05T08:47:21.026Z,100515.72
2022-12-05T08:49:49.392Z,100520.03
2022-12-05T08:52:17.850Z,100514.78
2022-12-05T08:54:46.479Z,100517.53
2022-12-05T08:57:16.569Z,100505.75
2022-12-05T08:59:45.103Z,100526.94
2022-12-05T09:02:13.754Z,100500.53
2022-12-05T09:04:42.194Z,100519.00
2022-12-05T09:07:10.769Z,100504.81
2022-12-05T09:09:39.523Z,100513.84
2022-12-05T09:12:07.893Z,100492.31
2022-12-05T09:14:37.817Z,100496.09
2022-12-05T09:17:07.291Z,100505.16
2022-12-05T09:19:35.824Z,100499.06
2022-12-05T09:22:04.243Z,100501.50
2022-12-05T09:24:33.024Z,100502.16
2022-12-05T09:27:01.412Z,100495.97
2022-12-05T09:29:29.892Z,100499.34
2022-12-05T09:31:59.730Z,100500.06
2022-12-05T09:34:28.817Z,100504.25
2022-12-05T09:37:10.527Z,100506.06
2022-12-05T09:39:45.403Z,100498.28
2022-12-05T09:42:40.961Z,100481.94
2022-12-05T09:45:29.522Z,100495.38
2022-12-05T09:48:02.575Z,100489.94
2022-12-05T09:50:35.665Z,100490.75
2022-12-05T09:53:12.466Z,100501.03
2022-12-05T09:55:48.934Z,100492.38
2022-12-05T09:58:29.610Z,100478.41
2022-12-05T10:01:04.970Z,100478.31
2022-12-05T10:03:42.779Z,100485.97
2022-12-05T10:06:16.880Z,100482.63
2022-12-05T10:09:02.481Z,100473.63
2022-12-05T10:11:37.667Z,100474.28
2022-12-05T10:14:15.158Z,100473.41
2022-12-05T10:16:50.130Z,100462.94
2022-12-05T10:19:23.837Z,100442.59
2022-12-05T10:21:59.219Z,100460.03
2022-12-05T10:24:33.712Z,100468.31
2022-12-05T10:27:07.049Z,100463.81
2022-12-05T10:29:39.621Z,100462.13
2022-12-05T10:32:14.621Z,100437.34
2022-12-05T10:34:45.945Z,100458.75
2022-12-05T10:37:18.499Z,100461.28
2022-12-05T10:39:47.822Z,100461.38
2022-12-05T10:42:18.974Z,100443.03
2022-12-05T10:44:47.609Z,100452.50
2022-12-05T10:47:16.035Z,100455.84
2022-12-05T10:49:47.326Z,100454.59
2022-12-05T10:52:16.863Z,100450.28
2022-12-05T10:54:49.137Z,100452.69
2022-12-05T10:57:24.751Z,100449.88
2022-12-05T10:59:54.741Z,100454.16
2022-12-05T11:02:27.685Z,100453.03
2022-12-05T11:04:59.097Z,100437.91
2022-12-05T11:07:33.081Z,100451.88
2022-12-05T11:10:03.737Z,100457.75
2022-12-05T11:12:39.064Z,100450.63
2022-12-05T11:15:22.737Z,100455.03
2022-12-05T11:17:52.918Z,100457.56
2022-12-05T11:20:42.161Z,100453.13
2022-12-05T11:23:26.823Z,100459.09
2022-12-05T11:25:56.285Z,100449.34
2022-12-05T11:28:46.867Z,100443.16
2022-12-05T11:31:29.603Z,100450.00
2022-12-05T11:34:16.150Z,100445.59
2022-12-05T11:36:51.819Z,100437.63
2022-12-05T11:39:20.654Z,100435.31
2022-12-05T11:42:13.091Z,100442.75
2022-12-05T11:45:01.543Z,100446.09
2022-12-05T11:47:45.324Z,100441.72
2022-12-05T11:50:26.392Z,100441.59
2022-12-05T11:53:13.135Z,100431.31
2022-12-05T11:55:47.495Z,100436.13
2022-12-05T11:58:56.070Z,100439.28
2022-12-05T12:01:38.243Z,100433.22
2022-12-05T12:04:29.727Z,100434.03
2022-12-05T12:07:11.521Z,100439.81
2022-12-05T12:09:51.801Z,100431.19
2022-12-05T12:12:30.281Z,100416.84
2022-12-05T12:15:10.366Z,100442.94
2022-12-05T12:17:47.478Z,100432.44
2022-12-05T12:20:37.018Z,100428.06
2022-12-05T12:23:25.875Z,100426.03
2022-12-05T12:26:07.198Z,100416.72
2022-12-05T12:28:41.818Z,100427.84
2022-12-05T12:31:25.340Z,100425.09
2022-12-05T12:34:03.377Z,100425.84
2022-12-05T12:36:39.312Z,100422.16
2022-12-05T12:39:21.113Z,100403.59
2022-12-05T12:42:13.558Z,100420.69
2022-12-05T12:45:06.087Z,100410.44
2022-12-05T12:47:46.519Z,100426.47
2022-12-05T12:50:20.326Z,100418.59
2022-12-05T12:53:34.905Z,100398.78
2022-12-05T12:56:14.160Z,100401.09
2022-12-05T12:58:52.542Z,100414.94
2022-12-05T13:01:33.309Z,100417.78
2022-12-05T13:04:06.860Z,100421.84
2022-12-05T13:06:42.958Z,100421.84
2022-12-05T13:09:20.022Z,100420.91
2022-12-05T13:11:51.711Z,100419.03
2022-12-05T13:14:27.711Z,100420.69
2022-12-05T13:16:58.639Z,100422.16
2022-12-05T13:19:37.508Z,100424.78
2022-12-05T13:22:07.264Z,100425.38
2022-12-05T13:24:36.382Z,100426.25
2022-12-05T13:27:09.688Z,100425.50
2022-12-05T13:29:44.515Z,100422.03
2022-12-05T13:32:29.841Z,100427.28
2022-12-05T13:35:00.511Z,100419.84
2022-12-05T13:37:48.324Z,100431.69
2022-12-05T13:40:45.874Z,100432.22
2022-12-05T13:43:16.827Z,100440.91
2022-12-05T13:46:04.523Z,100438.19
2022-12-05T13:48:35.983Z,100439.88
2022-12-05T13:51:08.703Z,100443.22
2022-12-05T13:53:41.637Z,100442.38
2022-12-05T13:56:29.459Z,100415.97
2022-12-05T13:58:59.770Z,100429.88
2022-12-05T14:01:55.837Z,100430.63
2022-12-05T14:04:50.604Z,100433.13
2022-12-05T14:07:39.121Z,100440.25
2022-12-05T14:10:09.288Z,100430.63
2022-12-05T14:13:25.597Z,100435.66
2022-12-05T14:15:55.289Z,100437.31
2022-12-05T14:18:33.488Z,100445.41
2022-12-05T14:21:09.299Z,100418.25
2022-12-05T14:23:52.589Z,100424.41
2022-12-05T14:26:36.444Z,100429.66
2022-12-05T14:29:25.803Z,100419.25
2022-12-05T14:32:10.305Z,100419.03
2022-12-05T14:34:54.262Z,100417.59
2022-12-05T14:37:28.948Z,100425.16
2022-12-05T14:40:00.117Z,100421.56
2022-12-05T14:42:37.791Z,100425.88
2022-12-05T14:45:26.876Z,100418.72
2022-12-05T14:48:00.605Z,100425.16
2022-12-05T14:50:48.111Z,100428.28
2022-12-05T14:53:36.572Z,100423.84
2022-12-05T14:56:23.696Z,100427.44
2022-12-05T14:58:59.065Z,100426.59
2022-12-05T15:01:30.275Z,100423.84
2022-12-05T15:04:09.933Z,100423.63
2022-12-05T15:06:50.123Z,100421.34
2022-12-05T15:09:38.327Z,100397.44
2022-12-05T15:12:13.832Z,100416.72
2022-12-05T15:14:48.412Z,100429.53
2022-12-05T15:17:24.620Z,100429.91
2022-12-05T15:19:57.748Z,100426.22
2022-12-05T15:22:29.573Z,100424.44
2022-12-05T15:24:58.187Z,100436.38
2022-12-05T15:27:26.910Z,100425.28
2022-12-05T15:29:56.907Z,100424.94
2022-12-05T15:32:29.141Z,100419.59
2022-12-05T15:35:05.301Z,100425.66
2022-12-05T15:37:46.313Z,100421.25
2022-12-05T15:40:18.097Z,100420.19
2022-12-05T15:42:47.802Z,100408.00
2022-12-05T15:45:26.796Z,100400.25
2022-12-05T15:47:57.522Z,100417.88
2022-12-05T15:50:32.814Z,100395.00
2022-12-05T15:53:07.310Z,100409.16
2022-12-05T15:55:41.905Z,100404.88
2022-12-05T15:58:19.448Z,100426.97
2022-12-05T16:00:52.647Z,100422.56
2022-12-05T16:03:55.065Z,100417.00
2022-12-05T16:06:29.839Z,100425.81
2022-12-05T16:09:01.936Z,100426.75
2022-12-05T16:11:30.547Z,100423.81
2022-12-05T16:14:03.001Z,100418.44
2022-12-05T16:16:35.751Z,100425.38
2022-12-05T16:19:07.297Z,100425.97
2022-12-05T16:21:39.279Z,100416.66
2022-12-05T16:24:17.938Z,100429.34
2022-12-05T16:26:58.106Z,100438.16
2022-12-05T16:29:28.761Z,100437.34
2022-12-05T16:31:58.466Z,100432.19
2022-12-05T16:34:28.629Z,100436.88
2022-12-05T16:36:59.026Z,100439.38
2022-12-05T16:39:30.208Z,100418.22
2022-12-05T16:41:58.717Z,100439.16
2022-12-05T16:45:15.593Z,100447.91
2022-12-05T16:47:59.123Z,100438.94
2022-12-05T16:50:32.751Z,100445.88
2022-12-05T16:53:15.939Z,100443.22
2022-12-05T16:55:46.417Z,100420.84
2022-12-05T16:58:22.492Z,100443.38
2022-12-05T17:00:51.488Z,100448.41
2022-12-05T17:03:36.232Z,100445.63
2022-12-05T17:06:05.194Z,100446.34
2022-12-05T17:08:36.967Z,100440.38
2022-12-05T17:11:07.294Z,100442.78
2022-12-05T17:13:35.824Z,100442.06
2022-12-05T17:16:04.663Z,100437.53
2022-12-05T17:18:33.056Z,100446.03
2022-12-05T17:21:03.633Z,100436.69
2022-12-05T17:23:32.019Z,100447.59
2022-12-05T17:26:01.064Z,100444.34
2022-12-05T17:28:31.176Z,100455.38
2022-12-05T17:30:59.800Z,100439.31
2022-12-05T17:33:28.230Z,100447.72
2022-12-05T17:35:56.699Z,100449.47
2022-12-05T17:38:25.501Z,100441.59
2022-12-05T17:40:53.934Z,100451.28
2022-12-05T17:43:25.268Z,100450.22
2022-12-05T17:45:55.644Z,100435.13
2022-12-05T17:48:26.926Z,100450.34
2022-12-05T17:50:57.904Z,100451.88
2022-12-05T17:53:29.557Z,100445.81
2022-12-05T17:55:57.995Z,100434.66
2022-12-05T17:58:27.212Z,100454.19
2022-12-05T18:00:57.167Z,100419.34
2022-12-05T18:03:26.150Z,100438.28
2022-12-05T18:05:56.804Z,100437.47
2022-12-05T18:08:28.377Z,100432.94
2022-12-05T18:10:57.603Z,100438.28
2022-12-05T18:13:25.946Z,100439.72
2022-12-05T18:15:59.409Z,100438.78
2022-12-05T18:18:29.667Z,100441.41
2022-12-05T18:21:06.588Z,100444.03
2022-12-05T18:23:36.730Z,100445.47
2022-12-05T18:26:07.257Z,100432.06
2022-12-05T18:28:36.550Z,100440.22
2022-12-05T18:31:08.833Z,100439.16
2022-12-05T18:33:37.383Z,100419.38
2022-12-05T18:36:08.576Z,100438.31
2022-12-05T18:38:41.004Z,100437.72
2022-12-05T18:41:10.481Z,100433.28
2022-12-05T18:43:40.279Z,100407.91
2022-12-05T18:46:10.510Z,100414.63
2022-12-05T18:48:41.721Z,100437.72
2022-12-05T18:51:13.658Z,100453.84
2022-12-05T18:53:43.067Z,100434.13
2022-12-05T18:56:22.408Z,100445.00
2022-12-05T18:58:55.811Z,100437.97
2022-12-05T19:01:26.774Z,100436.16
2022-12-05T19:03:56.519Z,100439.75
2022-12-05T19:06:27.126Z,100439.75
2022-12-05T19:08:56.722Z,100418.94
2022-12-05T19:11:27.474Z,100437.34
2022-12-05T19:13:57.413Z,100433.28
2022-12-05T19:16:29.328Z,100415.25
2022-12-05T19:19:00.335Z,100426.97
2022-12-05T19:21:30.269Z,100428.50
2022-12-05T19:23:59.372Z,100429.38
2022-12-05T19:26:27.899Z,100432.81
2022-12-05T19:29:05.330Z,100441.66
2022-12-05T19:31:37.336Z,100433.69
2022-12-05T19:34:07.983Z,100440.59
2022-12-05T19:36:38.718Z,100429.47
2022-12-05T19:39:12.245Z,100411.28
2022-12-05T19:41:41.165Z,100432.09
2022-12-05T19:44:10.596Z,100442.63
2022-12-05T19:46:40.976Z,100446.19
2022-12-05T19:49:11.856Z,100445.47
2022-12-05T19:51:40.853Z,100450.97
2022-12-05T19:54:12.597Z,100436.50
2022-12-05T19:56:41.956Z,100437.69
2022-12-05T19:59:11.690Z,100427.28
2022-12-05T20:01:42.596Z,100435.06
2022-12-05T20:04:14.130Z,100436.97
2022-12-05T20:06:45.041Z,100429.91
2022-12-05T20:09:16.080Z,100436.97
2022-12-05T20:11:53.907Z,100431.81
2022-12-05T20:14:24.464Z,100431.09
2022-12-05T20:16:54.318Z,100414.47
2022-12-05T20:19:23.450Z,100419.97
2022-12-05T20:21:52.436Z,100429.81
2022-12-05T20:24:20.822Z,100440.91
2022-12-05T20:26:49.266Z,100421.03
2022-12-05T20:29:17.661Z,100430.84
2022-12-05T20:31:46.118Z,100424.16
2022-12-05T20:34:16.517Z,100420.31
2022-12-05T20:36:45.013Z,100428.81
2022-12-05T20:39:16.521Z,100425.00
2022-12-05T20:41:45.663Z,100428.59
2022-12-05T20:44:17.237Z,100427.72
2022-12-05T20:46:45.921Z,100423.44
2022-12-05T20:49:15.912Z,100428.69
2022-12-05T20:51:46.242Z,100445.41
2022-12-05T20:54:17.241Z,100442.06
2022-12-05T20:56:47.142Z,100441.22
2022-12-05T20:59:16.328Z,100440.38
2022-12-05T21:01:47.236Z,100437.97
2022-12-05T21:04:17.600Z,100425.78
2022-12-05T21:06:46.856Z,100435.34
2022-12-05T21:09:26.978Z,100430.09
2022-12-05T21:11:55.422Z,100427.13
2022-12-05T21:14:25.308Z,100426.28
2022-12-05T21:16:53.974Z,100424.50
2022-12-05T21:19:24.212Z,100423.56
2022-12-05T21:21:54.293Z,100397.34
2022-12-05T21:24:24.024Z,100410.28
2022-12-05T21:26:53.403Z,100415.31
2022-12-05T21:29:21.931Z,100396.06
2022-12-05T21:31:52.694Z,100406.38
2022-12-05T21:34:22.658Z,100411.50
2022-12-05T21:36:53.020Z,100407.91
2022-12-05T21:39:22.013Z,100403.28
2022-12-05T21:41:50.870Z,100405.91
2022-12-05T21:44:20.756Z,100411.03
2022-12-05T21:46:50.162Z,100404.09
2022-12-05T21:49:19.014Z,100411.28
2022-12-05T21:51:47.370Z,100400.75
2022-12-05T21:54:17.692Z,100400.53
2022-12-05T21:56:46.424Z,100404.50
2022-12-05T21:59:15.402Z,100400.78
2022-12-05T22:01:43.793Z,100405.09
2022-12-05T22:04:12.481Z,100397.19
2022-12-05T22:06:40.837Z,100393.03
2022-12-05T22:09:09.664Z,100411.44
2022-12-05T22:11:39.438Z,100406.06
2022-12-05T22:14:09.054Z,100391.22
2022-12-05T22:16:37.856Z,100392.19
2022-12-05T22:19:06.956Z,100394.09
2022-12-05T22:21:36.392Z,100400.06
2022-12-05T22:24:05.500Z,100393.03
2022-12-05T22:26:34.470Z,100373.53
2022-12-05T22:29:05.179Z,100391.38
2022-12-05T22:31:35.062Z,100388.00
2022-12-05T22:34:03.549Z,100397.44
2022-12-05T22:36:32.040Z,100391.38
2022-12-05T22:39:00.405Z,100399.97
2022-12-05T22:41:29.353Z,100370.41
2022-12-05T22:44:00.032Z,100379.28
2022-12-05T22:46:30.726Z,100367.31
2022-12-05T22:48:59.741Z,100377.03
2022-12-05T22:51:28.458Z,100370.91
2022-12-05T22:53:57.500Z,100370.81
2022-12-05T22:56:28.150Z,100368.19
2022-12-05T22:58:57.802Z,100375.94
2022-12-05T23:01:28.746Z,100362.78
2022-12-05T23:04:00.478Z,100371.63
2022-12-05T23:06:29.754Z,100344.25
2022-12-05T23:08:58.456Z,100354.91
2022-12-05T23:11:27.897Z,100361.84
2022-12-05T23:14:01.503Z,100354.91
2022-12-05T23:16:32.525Z,100357.44
2022-12-05T23:19:04.765Z,100347.72
2022-12-05T23:21:35.520Z,100338.16
2022-12-05T23:24:06.052Z,100337.44
2022-12-05T23:26:37.611Z,100337.94
2022-12-05T23:29:06.551Z,100320.81
2022-12-05T23:31:35.314Z,100326.56
2022-12-05T23:34:05.522Z,100324.56
2022-12-05T23:36:35.378Z,100324.78
2022-12-05T23:39:04.401Z,100318.91
2022-12-05T23:41:33.298Z,100308.75
2022-12-05T23:44:02.133Z,100295.00
2022-12-05T23:46:30.919Z,100290.00
2022-12-05T23:48:59.544Z,100297.75
2022-12-05T23:51:30.686Z,100301.47
2022-12-05T23:54:00.992Z,100297.97
2022-12-05T23:56:32.564Z,100296.06
2022-12-05T23:59:01.732Z,100297.97
